sensor_id;sensor_type;location;lat;lon;timestamp;P1;durP1;ratioP1;P2;durP2;ratioP2
72095;SDS011;59968;51.084;16.748;2022-09-09T00:02:28;6.40;;;4.40;;
72095;SDS011;59968;51.084;16.748;2022-09-09T00:04:42;6.30;;;4.10;;
72095;SDS011;59968;51.084;16.748;2022-09-09T00:10:26;8.50;;;4.60;;
72095;SDS011;59968;51.084;16.748;2022-09-09T00:21:17;5.30;;;3.80;;
72095;SDS011;59968;51.084;16.748;2022-09-09T00:23:47;6.90;;;4.10;;
72095;SDS011;59968;51.084;16.748;2022-09-09T00:26:31;6.30;;;3.90;;
72095;SDS011;59968;51.084;16.748;2022-09-09T00:29:22;6.70;;;4.00;;
72095;SDS011;59968;51.084;16.748;2022-09-09T00:31:55;6.80;;;3.90;;
72095;SDS011;59968;51.084;16.748;2022-09-09T00:34:26;6.30;;;3.90;;
72095;SDS011;59968;51.084;16.748;2022-09-09T00:36:55;6.90;;;3.80;;
72095;SDS011;59968;51.084;16.748;2022-09-09T00:39:40;8.70;;;4.00;;
72095;SDS011;59968;51.084;16.748;2022-09-09T00:42:13;7.10;;;4.10;;
72095;SDS011;59968;51.084;16.748;2022-09-09T00:47:58;7.70;;;3.80;;
72095;SDS011;59968;51.084;16.748;2022-09-09T00:50:35;7.10;;;4.00;;
72095;SDS011;59968;51.084;16.748;2022-09-09T00:56:05;7.50;;;3.90;;
72095;SDS011;59968;51.084;16.748;2022-09-09T00:58:42;8.00;;;4.00;;
72095;SDS011;59968;51.084;16.748;2022-09-09T01:01:16;7.10;;;4.50;;
72095;SDS011;59968;51.084;16.748;2022-09-09T01:03:49;7.40;;;4.50;;
72095;SDS011;59968;51.084;16.748;2022-09-09T01:09:10;7.00;;;4.30;;
72095;SDS011;59968;51.084;16.748;2022-09-09T01:11:52;6.80;;;4.60;;
72095;SDS011;59968;51.084;16.748;2022-09-09T01:14:29;6.80;;;4.20;;
72095;SDS011;59968;51.084;16.748;2022-09-09T01:17:06;6.40;;;4.60;;
72095;SDS011;59968;51.084;16.748;2022-09-09T01:28:19;6.60;;;4.80;;
72095;SDS011;59968;51.084;16.748;2022-09-09T01:30:51;7.60;;;4.60;;
72095;SDS011;59968;51.084;16.748;2022-09-09T01:33:22;5.50;;;3.90;;
72095;SDS011;59968;51.084;16.748;2022-09-09T01:35:53;6.10;;;4.50;;
72095;SDS011;59968;51.084;16.748;2022-09-09T01:38:31;5.60;;;4.00;;
72095;SDS011;59968;51.084;16.748;2022-09-09T01:41:00;6.30;;;4.10;;
72095;SDS011;59968;51.084;16.748;2022-09-09T01:43:38;7.40;;;4.70;;
72095;SDS011;59968;51.084;16.748;2022-09-09T01:46:06;6.40;;;4.20;;
72095;SDS011;59968;51.084;16.748;2022-09-09T01:48:35;7.10;;;4.50;;
72095;SDS011;59968;51.084;16.748;2022-09-09T01:51:07;8.00;;;4.80;;
72095;SDS011;59968;51.084;16.748;2022-09-09T01:53:37;6.20;;;4.60;;
72095;SDS011;59968;51.084;16.748;2022-09-09T02:10:25;10.50;;;5.00;;
72095;SDS011;59968;51.084;16.748;2022-09-09T02:13:09;7.20;;;4.80;;
72095;SDS011;59968;51.084;16.748;2022-09-09T02:15:59;6.40;;;5.00;;
72095;SDS011;59968;51.084;16.748;2022-09-09T02:18:34;7.60;;;4.90;;
72095;SDS011;59968;51.084;16.748;2022-09-09T02:21:05;7.10;;;4.50;;
72095;SDS011;59968;51.084;16.748;2022-09-09T02:23:33;7.60;;;4.50;;
72095;SDS011;59968;51.084;16.748;2022-09-09T02:26:03;6.20;;;4.60;;
72095;SDS011;59968;51.084;16.748;2022-09-09T02:28:31;7.90;;;5.10;;
72095;SDS011;59968;51.084;16.748;2022-09-09T02:31:01;6.90;;;4.90;;
72095;SDS011;59968;51.084;16.748;2022-09-09T02:33:35;7.40;;;4.90;;
72095;SDS011;59968;51.084;16.748;2022-09-09T02:36:08;6.90;;;5.40;;
72095;SDS011;59968;51.084;16.748;2022-09-09T02:38:40;6.70;;;4.80;;
72095;SDS011;59968;51.084;16.748;2022-09-09T02:41:13;7.70;;;5.10;;
72095;SDS011;59968;51.084;16.748;2022-09-09T02:43:40;7.30;;;4.30;;
72095;SDS011;59968;51.084;16.748;2022-09-09T02:49:55;7.00;;;5.30;;
72095;SDS011;59968;51.084;16.748;2022-09-09T02:52:20;7.60;;;4.90;;
72095;SDS011;59968;51.084;16.748;2022-09-09T02:55:06;6.40;;;4.90;;
72095;SDS011;59968;51.084;16.748;2022-09-09T02:57:46;7.10;;;4.50;;
72095;SDS011;59968;51.084;16.748;2022-09-09T03:00:15;6.30;;;4.90;;
72095;SDS011;59968;51.084;16.748;2022-09-09T03:02:42;6.50;;;4.40;;
72095;SDS011;59968;51.084;16.748;2022-09-09T03:05:09;8.00;;;4.80;;
72095;SDS011;59968;51.084;16.748;2022-09-09T03:07:36;7.70;;;5.60;;
72095;SDS011;59968;51.084;16.748;2022-09-09T03:10:03;7.00;;;4.90;;
72095;SDS011;59968;51.084;16.748;2022-09-09T03:12:31;7.40;;;4.80;;
72095;SDS011;59968;51.084;16.748;2022-09-09T03:15:00;9.30;;;4.20;;
72095;SDS011;59968;51.084;16.748;2022-09-09T03:17:27;5.70;;;3.90;;
72095;SDS011;59968;51.084;16.748;2022-09-09T03:19:54;9.20;;;4.50;;
72095;SDS011;59968;51.084;16.748;2022-09-09T03:22:22;6.50;;;4.50;;
72095;SDS011;59968;51.084;16.748;2022-09-09T03:24:49;6.20;;;4.60;;
72095;SDS011;59968;51.084;16.748;2022-09-09T03:27:17;6.20;;;4.60;;
72095;SDS011;59968;51.084;16.748;2022-09-09T03:29:46;6.90;;;4.90;;
72095;SDS011;59968;51.084;16.748;2022-09-09T03:32:16;6.40;;;4.70;;
72095;SDS011;59968;51.084;16.748;2022-09-09T03:34:44;6.50;;;4.30;;
72095;SDS011;59968;51.084;16.748;2022-09-09T03:37:12;6.20;;;4.40;;
72095;SDS011;59968;51.084;16.748;2022-09-09T03:39:39;7.00;;;3.90;;
72095;SDS011;59968;51.084;16.748;2022-09-09T03:42:07;7.70;;;4.70;;
72095;SDS011;59968;51.084;16.748;2022-09-09T03:44:34;6.00;;;4.40;;
72095;SDS011;59968;51.084;16.748;2022-09-09T03:47:01;6.80;;;4.40;;
72095;SDS011;59968;51.084;16.748;2022-09-09T03:49:28;8.30;;;4.90;;
72095;SDS011;59968;51.084;16.748;2022-09-09T03:51:56;6.10;;;4.40;;
72095;SDS011;59968;51.084;16.748;2022-09-09T03:54:24;7.00;;;4.40;;
72095;SDS011;59968;51.084;16.748;2022-09-09T03:56:51;8.00;;;4.20;;
72095;SDS011;59968;51.084;16.748;2022-09-09T03:59:19;6.10;;;4.30;;
72095;SDS011;59968;51.084;16.748;2022-09-09T04:01:47;7.10;;;4.50;;
72095;SDS011;59968;51.084;16.748;2022-09-09T04:04:15;9.00;;;4.40;;
72095;SDS011;59968;51.084;16.748;2022-09-09T04:06:45;7.00;;;4.50;;
72095;SDS011;59968;51.084;16.748;2022-09-09T04:09:14;6.10;;;4.20;;
72095;SDS011;59968;51.084;16.748;2022-09-09T04:11:41;6.80;;;4.20;;
72095;SDS011;59968;51.084;16.748;2022-09-09T04:14:08;9.50;;;3.90;;
72095;SDS011;59968;51.084;16.748;2022-09-09T04:16:35;5.90;;;4.20;;
72095;SDS011;59968;51.084;16.748;2022-09-09T04:19:04;5.20;;;4.00;;
72095;SDS011;59968;51.084;16.748;2022-09-09T04:21:34;5.30;;;3.80;;
72095;SDS011;59968;51.084;16.748;2022-09-09T04:24:01;6.30;;;3.90;;
72095;SDS011;59968;51.084;16.748;2022-09-09T04:26:28;5.80;;;4.30;;
72095;SDS011;59968;51.084;16.748;2022-09-09T04:28:55;6.80;;;3.80;;
72095;SDS011;59968;51.084;16.748;2022-09-09T04:31:22;5.30;;;3.90;;
72095;SDS011;59968;51.084;16.748;2022-09-09T04:33:52;4.90;;;3.60;;
72095;SDS011;59968;51.084;16.748;2022-09-09T04:36:20;6.30;;;3.80;;
72095;SDS011;59968;51.084;16.748;2022-09-09T04:38:48;5.60;;;3.70;;
72095;SDS011;59968;51.084;16.748;2022-09-09T04:41:17;5.70;;;3.40;;
72095;SDS011;59968;51.084;16.748;2022-09-09T04:43:45;6.00;;;3.60;;
72095;SDS011;59968;51.084;16.748;2022-09-09T04:46:12;4.90;;;3.40;;
72095;SDS011;59968;51.084;16.748;2022-09-09T04:48:40;5.40;;;3.50;;
72095;SDS011;59968;51.084;16.748;2022-09-09T04:51:08;6.70;;;3.80;;
72095;SDS011;59968;51.084;16.748;2022-09-09T04:53:38;5.10;;;3.30;;
72095;SDS011;59968;51.084;16.748;2022-09-09T04:56:08;5.00;;;3.30;;
72095;SDS011;59968;51.084;16.748;2022-09-09T04:58:41;4.20;;;3.40;;
72095;SDS011;59968;51.084;16.748;2022-09-09T05:01:16;4.00;;;3.10;;
72095;SDS011;59968;51.084;16.748;2022-09-09T05:03:49;6.10;;;3.40;;
72095;SDS011;59968;51.084;16.748;2022-09-09T05:06:22;5.00;;;3.50;;
72095;SDS011;59968;51.084;16.748;2022-09-09T05:08:54;4.50;;;3.20;;
72095;SDS011;59968;51.084;16.748;2022-09-09T05:11:26;4.90;;;3.40;;
72095;SDS011;59968;51.084;16.748;2022-09-09T05:14:10;4.80;;;3.70;;
72095;SDS011;59968;51.084;16.748;2022-09-09T05:16:38;4.80;;;3.10;;
72095;SDS011;59968;51.084;16.748;2022-09-09T05:19:07;5.50;;;3.20;;
72095;SDS011;59968;51.084;16.748;2022-09-09T05:21:43;5.10;;;3.40;;
72095;SDS011;59968;51.084;16.748;2022-09-09T05:24:11;5.10;;;3.80;;
72095;SDS011;59968;51.084;16.748;2022-09-09T05:26:39;4.90;;;3.20;;
72095;SDS011;59968;51.084;16.748;2022-09-09T05:29:07;6.70;;;3.70;;
72095;SDS011;59968;51.084;16.748;2022-09-09T05:31:34;7.30;;;4.10;;
72095;SDS011;59968;51.084;16.748;2022-09-09T05:34:08;7.30;;;3.10;;
72095;SDS011;59968;51.084;16.748;2022-09-09T05:36:35;6.20;;;3.60;;
72095;SDS011;59968;51.084;16.748;2022-09-09T05:39:03;7.60;;;3.90;;
72095;SDS011;59968;51.084;16.748;2022-09-09T05:41:31;5.80;;;3.70;;
72095;SDS011;59968;51.084;16.748;2022-09-09T05:44:00;7.00;;;3.20;;
72095;SDS011;59968;51.084;16.748;2022-09-09T05:46:28;7.60;;;3.90;;
72095;SDS011;59968;51.084;16.748;2022-09-09T05:48:55;7.10;;;3.60;;
72095;SDS011;59968;51.084;16.748;2022-09-09T05:51:28;5.70;;;3.80;;
72095;SDS011;59968;51.084;16.748;2022-09-09T05:54:03;6.20;;;3.20;;
72095;SDS011;59968;51.084;16.748;2022-09-09T05:56:32;6.10;;;3.70;;
72095;SDS011;59968;51.084;16.748;2022-09-09T05:58:59;6.50;;;3.80;;
72095;SDS011;59968;51.084;16.748;2022-09-09T06:01:28;6.20;;;4.00;;
72095;SDS011;59968;51.084;16.748;2022-09-09T06:03:58;4.60;;;3.40;;
72095;SDS011;59968;51.084;16.748;2022-09-09T06:06:26;6.40;;;4.00;;
72095;SDS011;59968;51.084;16.748;2022-09-09T06:08:57;7.70;;;3.80;;
72095;SDS011;59968;51.084;16.748;2022-09-09T06:11:29;6.30;;;3.70;;
72095;SDS011;59968;51.084;16.748;2022-09-09T06:13:58;5.10;;;3.60;;
72095;SDS011;59968;51.084;16.748;2022-09-09T06:16:27;6.60;;;3.50;;
72095;SDS011;59968;51.084;16.748;2022-09-09T06:18:55;6.10;;;3.50;;
72095;SDS011;59968;51.084;16.748;2022-09-09T06:21:31;4.90;;;3.10;;
72095;SDS011;59968;51.084;16.748;2022-09-09T06:24:04;5.30;;;3.50;;
72095;SDS011;59968;51.084;16.748;2022-09-09T06:26:32;6.20;;;3.60;;
72095;SDS011;59968;51.084;16.748;2022-09-09T06:29:02;5.00;;;3.20;;
72095;SDS011;59968;51.084;16.748;2022-09-09T06:31:31;5.70;;;2.70;;
72095;SDS011;59968;51.084;16.748;2022-09-09T06:34:06;4.90;;;2.80;;
72095;SDS011;59968;51.084;16.748;2022-09-09T06:36:36;5.00;;;3.00;;
72095;SDS011;59968;51.084;16.748;2022-09-09T06:39:05;4.70;;;2.60;;
72095;SDS011;59968;51.084;16.748;2022-09-09T06:41:41;4.60;;;3.00;;
72095;SDS011;59968;51.084;16.748;2022-09-09T06:44:18;6.50;;;3.10;;
72095;SDS011;59968;51.084;16.748;2022-09-09T06:46:45;5.10;;;2.70;;
72095;SDS011;59968;51.084;16.748;2022-09-09T06:49:15;5.30;;;3.10;;
72095;SDS011;59968;51.084;16.748;2022-09-09T06:51:43;4.20;;;2.80;;
72095;SDS011;59968;51.084;16.748;2022-09-09T06:54:12;3.40;;;2.70;;
72095;SDS011;59968;51.084;16.748;2022-09-09T06:56:43;5.30;;;2.90;;
72095;SDS011;59968;51.084;16.748;2022-09-09T06:59:19;4.50;;;3.00;;
72095;SDS011;59968;51.084;16.748;2022-09-09T07:01:48;4.70;;;2.50;;
72095;SDS011;59968;51.084;16.748;2022-09-09T07:04:22;3.80;;;2.50;;
72095;SDS011;59968;51.084;16.748;2022-09-09T07:06:49;3.30;;;2.50;;
72095;SDS011;59968;51.084;16.748;2022-09-09T07:09:20;4.50;;;2.60;;
72095;SDS011;59968;51.084;16.748;2022-09-09T07:11:50;4.00;;;2.90;;
72095;SDS011;59968;51.084;16.748;2022-09-09T07:14:21;4.40;;;3.20;;
72095;SDS011;59968;51.084;16.748;2022-09-09T07:16:54;3.20;;;2.90;;
72095;SDS011;59968;51.084;16.748;2022-09-09T07:19:27;4.70;;;2.50;;
72095;SDS011;59968;51.084;16.748;2022-09-09T07:21:55;4.10;;;2.60;;
72095;SDS011;59968;51.084;16.748;2022-09-09T07:24:23;3.90;;;2.70;;
72095;SDS011;59968;51.084;16.748;2022-09-09T07:26:51;3.60;;;2.90;;
72095;SDS011;59968;51.084;16.748;2022-09-09T07:29:20;4.20;;;2.50;;
72095;SDS011;59968;51.084;16.748;2022-09-09T07:31:51;4.30;;;2.90;;
72095;SDS011;59968;51.084;16.748;2022-09-09T07:34:23;4.00;;;3.00;;
72095;SDS011;59968;51.084;16.748;2022-09-09T07:36:50;4.90;;;2.70;;
72095;SDS011;59968;51.084;16.748;2022-09-09T07:39:17;3.80;;;2.90;;
72095;SDS011;59968;51.084;16.748;2022-09-09T07:41:48;4.90;;;2.90;;
72095;SDS011;59968;51.084;16.748;2022-09-09T07:44:19;4.20;;;2.80;;
72095;SDS011;59968;51.084;16.748;2022-09-09T07:46:50;5.90;;;3.20;;
72095;SDS011;59968;51.084;16.748;2022-09-09T07:49:21;4.90;;;3.30;;
72095;SDS011;59968;51.084;16.748;2022-09-09T07:51:58;4.70;;;3.30;;
72095;SDS011;59968;51.084;16.748;2022-09-09T07:54:26;4.60;;;3.20;;
72095;SDS011;59968;51.084;16.748;2022-09-09T07:56:54;4.20;;;2.70;;
72095;SDS011;59968;51.084;16.748;2022-09-09T07:59:23;5.60;;;2.60;;
72095;SDS011;59968;51.084;16.748;2022-09-09T08:01:51;4.40;;;2.70;;
72095;SDS011;59968;51.084;16.748;2022-09-09T08:04:25;3.00;;;2.20;;
72095;SDS011;59968;51.084;16.748;2022-09-09T08:06:54;4.70;;;2.60;;
72095;SDS011;59968;51.084;16.748;2022-09-09T08:09:27;4.50;;;2.70;;
72095;SDS011;59968;51.084;16.748;2022-09-09T08:12:07;4.30;;;3.10;;
72095;SDS011;59968;51.084;16.748;2022-09-09T08:14:35;3.70;;;2.20;;
72095;SDS011;59968;51.084;16.748;2022-09-09T08:17:02;4.00;;;2.20;;
72095;SDS011;59968;51.084;16.748;2022-09-09T08:19:30;3.90;;;2.80;;
72095;SDS011;59968;51.084;16.748;2022-09-09T08:22:02;4.80;;;2.50;;
72095;SDS011;59968;51.084;16.748;2022-09-09T08:24:31;2.70;;;2.20;;
72095;SDS011;59968;51.084;16.748;2022-09-09T08:26:58;3.90;;;2.50;;
72095;SDS011;59968;51.084;16.748;2022-09-09T08:29:27;4.80;;;2.40;;
72095;SDS011;59968;51.084;16.748;2022-09-09T08:31:56;4.00;;;2.50;;
72095;SDS011;59968;51.084;16.748;2022-09-09T08:34:25;3.70;;;2.60;;
72095;SDS011;59968;51.084;16.748;2022-09-09T08:36:53;5.20;;;2.50;;
72095;SDS011;59968;51.084;16.748;2022-09-09T08:39:26;4.70;;;1.90;;
72095;SDS011;59968;51.084;16.748;2022-09-09T08:50:26;3.70;;;1.90;;
72095;SDS011;59968;51.084;16.748;2022-09-09T08:53:17;4.30;;;1.60;;
72095;SDS011;59968;51.084;16.748;2022-09-09T08:55:51;2.70;;;1.70;;
72095;SDS011;59968;51.084;16.748;2022-09-09T08:58:48;2.60;;;1.80;;
72095;SDS011;59968;51.084;16.748;2022-09-09T09:04:24;4.30;;;1.90;;
72095;SDS011;59968;51.084;16.748;2022-09-09T09:10:28;3.50;;;1.80;;
72095;SDS011;59968;51.084;16.748;2022-09-09T09:13:14;2.90;;;2.20;;
72095;SDS011;59968;51.084;16.748;2022-09-09T09:19:17;3.30;;;1.90;;
72095;SDS011;59968;51.084;16.748;2022-09-09T09:21:51;3.30;;;2.20;;
72095;SDS011;59968;51.084;16.748;2022-09-09T09:27:13;2.90;;;1.90;;
72095;SDS011;59968;51.084;16.748;2022-09-09T09:29:49;3.60;;;2.20;;
72095;SDS011;59968;51.084;16.748;2022-09-09T09:32:40;3.40;;;1.80;;
72095;SDS011;59968;51.084;16.748;2022-09-09T09:35:16;2.80;;;1.80;;
72095;SDS011;59968;51.084;16.748;2022-09-09T09:37:46;5.70;;;1.70;;
72095;SDS011;59968;51.084;16.748;2022-09-09T09:40:47;3.80;;;2.10;;
72095;SDS011;59968;51.084;16.748;2022-09-09T09:43:19;4.20;;;2.00;;
72095;SDS011;59968;51.084;16.748;2022-09-09T09:45:51;4.40;;;2.10;;
72095;SDS011;59968;51.084;16.748;2022-09-09T09:48:38;4.10;;;2.10;;
72095;SDS011;59968;51.084;16.748;2022-09-09T09:51:10;4.00;;;2.00;;
72095;SDS011;59968;51.084;16.748;2022-09-09T09:53:42;5.10;;;2.00;;
72095;SDS011;59968;51.084;16.748;2022-09-09T09:56:13;3.00;;;1.80;;
72095;SDS011;59968;51.084;16.748;2022-09-09T10:01:27;3.70;;;2.00;;
72095;SDS011;59968;51.084;16.748;2022-09-09T10:04:14;3.70;;;2.30;;
72095;SDS011;59968;51.084;16.748;2022-09-09T10:06:47;3.50;;;1.90;;
72095;SDS011;59968;51.084;16.748;2022-09-09T10:23:29;3.70;;;1.60;;
72095;SDS011;59968;51.084;16.748;2022-09-09T10:37:38;2.10;;;1.70;;
72095;SDS011;59968;51.084;16.748;2022-09-09T10:45:49;3.30;;;2.00;;
72095;SDS011;59968;51.084;16.748;2022-09-09T10:53:42;2.40;;;1.90;;
72095;SDS011;59968;51.084;16.748;2022-09-09T10:56:16;3.80;;;1.70;;
72095;SDS011;59968;51.084;16.748;2022-09-09T11:01:30;3.80;;;1.90;;
72095;SDS011;59968;51.084;16.748;2022-09-09T11:04:08;3.30;;;1.90;;
72095;SDS011;59968;51.084;16.748;2022-09-09T11:06:44;3.20;;;1.70;;
72095;SDS011;59968;51.084;16.748;2022-09-09T11:09:19;3.50;;;2.10;;
72095;SDS011;59968;51.084;16.748;2022-09-09T11:11:57;3.80;;;1.80;;
72095;SDS011;59968;51.084;16.748;2022-09-09T11:14:32;3.30;;;1.80;;
72095;SDS011;59968;51.084;16.748;2022-09-09T11:17:21;3.70;;;2.00;;
72095;SDS011;59968;51.084;16.748;2022-09-09T11:19:53;3.30;;;2.00;;
72095;SDS011;59968;51.084;16.748;2022-09-09T11:22:29;2.90;;;1.80;;
72095;SDS011;59968;51.084;16.748;2022-09-09T11:25:18;2.90;;;1.60;;
72095;SDS011;59968;51.084;16.748;2022-09-09T11:38:53;3.90;;;2.00;;
72095;SDS011;59968;51.084;16.748;2022-09-09T11:41:36;3.70;;;1.80;;
72095;SDS011;59968;51.084;16.748;2022-09-09T11:44:12;3.60;;;1.70;;
72095;SDS011;59968;51.084;16.748;2022-09-09T11:46:49;2.40;;;1.60;;
72095;SDS011;59968;51.084;16.748;2022-09-09T11:51:54;2.60;;;1.70;;
72095;SDS011;59968;51.084;16.748;2022-09-09T11:54:31;2.80;;;1.80;;
72095;SDS011;59968;51.084;16.748;2022-09-09T12:00:04;2.80;;;2.00;;
72095;SDS011;59968;51.084;16.748;2022-09-09T12:02:47;4.00;;;1.80;;
72095;SDS011;59968;51.084;16.748;2022-09-09T12:05:19;5.40;;;1.90;;
72095;SDS011;59968;51.084;16.748;2022-09-09T12:07:53;2.60;;;2.00;;
72095;SDS011;59968;51.084;16.748;2022-09-09T12:10:33;2.30;;;1.80;;
72095;SDS011;59968;51.084;16.748;2022-09-09T12:13:19;1.90;;;1.70;;
72095;SDS011;59968;51.084;16.748;2022-09-09T12:15:53;2.60;;;1.80;;
72095;SDS011;59968;51.084;16.748;2022-09-09T12:29:23;2.60;;;1.90;;
72095;SDS011;59968;51.084;16.748;2022-09-09T12:32:07;2.70;;;1.70;;
72095;SDS011;59968;51.084;16.748;2022-09-09T12:37:36;2.90;;;2.10;;
72095;SDS011;59968;51.084;16.748;2022-09-09T12:42:51;2.50;;;2.00;;
72095;SDS011;59968;51.084;16.748;2022-09-09T12:45:22;2.50;;;2.00;;
72095;SDS011;59968;51.084;16.748;2022-09-09T12:48:08;2.60;;;1.60;;
72095;SDS011;59968;51.084;16.748;2022-09-09T12:50:49;4.20;;;2.10;;
72095;SDS011;59968;51.084;16.748;2022-09-09T12:53:22;2.90;;;1.90;;
72095;SDS011;59968;51.084;16.748;2022-09-09T12:55:58;4.50;;;2.20;;
72095;SDS011;59968;51.084;16.748;2022-09-09T12:58:29;3.20;;;1.80;;
72095;SDS011;59968;51.084;16.748;2022-09-09T13:01:02;2.50;;;1.80;;
72095;SDS011;59968;51.084;16.748;2022-09-09T13:03:48;2.40;;;2.10;;
72095;SDS011;59968;51.084;16.748;2022-09-09T13:08:56;3.10;;;2.20;;
72095;SDS011;59968;51.084;16.748;2022-09-09T13:11:39;3.30;;;1.70;;
72095;SDS011;59968;51.084;16.748;2022-09-09T13:14:31;2.30;;;1.60;;
72095;SDS011;59968;51.084;16.748;2022-09-09T13:17:04;1.70;;;1.50;;
72095;SDS011;59968;51.084;16.748;2022-09-09T13:19:37;3.70;;;2.20;;
72095;SDS011;59968;51.084;16.748;2022-09-09T13:25:04;2.70;;;2.00;;
72095;SDS011;59968;51.084;16.748;2022-09-09T13:27:33;3.50;;;2.20;;
72095;SDS011;59968;51.084;16.748;2022-09-09T13:30:22;3.30;;;1.90;;
72095;SDS011;59968;51.084;16.748;2022-09-09T13:33:00;3.70;;;1.90;;
72095;SDS011;59968;51.084;16.748;2022-09-09T13:35:32;4.80;;;2.30;;
72095;SDS011;59968;51.084;16.748;2022-09-09T13:38:06;3.10;;;2.20;;
72095;SDS011;59968;51.084;16.748;2022-09-09T13:40:37;3.20;;;1.80;;
72095;SDS011;59968;51.084;16.748;2022-09-09T13:43:05;3.00;;;2.20;;
72095;SDS011;59968;51.084;16.748;2022-09-09T13:45:51;2.50;;;1.90;;
72095;SDS011;59968;51.084;16.748;2022-09-09T13:48:30;2.90;;;2.40;;
72095;SDS011;59968;51.084;16.748;2022-09-09T13:51:02;3.70;;;2.70;;
72095;SDS011;59968;51.084;16.748;2022-09-09T13:53:34;3.00;;;2.60;;
72095;SDS011;59968;51.084;16.748;2022-09-09T13:56:01;4.20;;;2.30;;
72095;SDS011;59968;51.084;16.748;2022-09-09T13:58:28;3.70;;;2.20;;
72095;SDS011;59968;51.084;16.748;2022-09-09T14:01:00;3.30;;;2.40;;
72095;SDS011;59968;51.084;16.748;2022-09-09T14:03:29;3.70;;;2.70;;
72095;SDS011;59968;51.084;16.748;2022-09-09T14:06:03;6.60;;;3.00;;
72095;SDS011;59968;51.084;16.748;2022-09-09T14:08:36;4.60;;;2.40;;
72095;SDS011;59968;51.084;16.748;2022-09-09T14:11:07;3.40;;;2.20;;
72095;SDS011;59968;51.084;16.748;2022-09-09T14:13:44;11.80;;;4.60;;
72095;SDS011;59968;51.084;16.748;2022-09-09T14:16:16;9.00;;;3.80;;
72095;SDS011;59968;51.084;16.748;2022-09-09T14:18:48;3.50;;;2.70;;
72095;SDS011;59968;51.084;16.748;2022-09-09T14:21:20;3.60;;;2.20;;
72095;SDS011;59968;51.084;16.748;2022-09-09T14:23:53;3.40;;;2.20;;
72095;SDS011;59968;51.084;16.748;2022-09-09T14:26:26;2.40;;;1.70;;
72095;SDS011;59968;51.084;16.748;2022-09-09T14:28:57;2.30;;;2.00;;
72095;SDS011;59968;51.084;16.748;2022-09-09T14:31:28;3.60;;;2.20;;
72095;SDS011;59968;51.084;16.748;2022-09-09T14:33:55;4.10;;;2.40;;
72095;SDS011;59968;51.084;16.748;2022-09-09T14:36:23;3.40;;;2.30;;
72095;SDS011;59968;51.084;16.748;2022-09-09T14:38:53;2.90;;;2.20;;
72095;SDS011;59968;51.084;16.748;2022-09-09T14:41:23;3.00;;;2.10;;
72095;SDS011;59968;51.084;16.748;2022-09-09T14:43:53;3.20;;;2.40;;
72095;SDS011;59968;51.084;16.748;2022-09-09T14:46:27;3.80;;;2.40;;
72095;SDS011;59968;51.084;16.748;2022-09-09T14:48:55;3.60;;;2.10;;
72095;SDS011;59968;51.084;16.748;2022-09-09T14:51:24;3.40;;;2.50;;
72095;SDS011;59968;51.084;16.748;2022-09-09T14:53:54;3.20;;;2.50;;
72095;SDS011;59968;51.084;16.748;2022-09-09T14:56:27;3.70;;;2.10;;
72095;SDS011;59968;51.084;16.748;2022-09-09T14:58:58;4.70;;;2.50;;
72095;SDS011;59968;51.084;16.748;2022-09-09T15:01:27;3.80;;;2.70;;
72095;SDS011;59968;51.084;16.748;2022-09-09T15:03:57;3.40;;;2.70;;
72095;SDS011;59968;51.084;16.748;2022-09-09T15:06:27;4.00;;;2.10;;
72095;SDS011;59968;51.084;16.748;2022-09-09T15:08:55;3.70;;;2.20;;
72095;SDS011;59968;51.084;16.748;2022-09-09T15:11:27;3.00;;;2.50;;
72095;SDS011;59968;51.084;16.748;2022-09-09T15:13:57;2.80;;;2.10;;
72095;SDS011;59968;51.084;16.748;2022-09-09T15:16:26;3.20;;;2.10;;
72095;SDS011;59968;51.084;16.748;2022-09-09T15:18:57;3.50;;;1.90;;
72095;SDS011;59968;51.084;16.748;2022-09-09T15:21:30;2.90;;;1.70;;
72095;SDS011;59968;51.084;16.748;2022-09-09T15:23:59;5.10;;;2.00;;
72095;SDS011;59968;51.084;16.748;2022-09-09T15:26:29;3.20;;;2.20;;
72095;SDS011;59968;51.084;16.748;2022-09-09T15:28:56;2.70;;;2.10;;
72095;SDS011;59968;51.084;16.748;2022-09-09T15:31:27;3.80;;;2.40;;
72095;SDS011;59968;51.084;16.748;2022-09-09T15:33:57;4.00;;;2.20;;
72095;SDS011;59968;51.084;16.748;2022-09-09T15:36:33;3.10;;;2.00;;
72095;SDS011;59968;51.084;16.748;2022-09-09T15:39:02;4.50;;;2.10;;
72095;SDS011;59968;51.084;16.748;2022-09-09T15:41:31;2.70;;;2.10;;
72095;SDS011;59968;51.084;16.748;2022-09-09T15:43:59;4.00;;;2.20;;
72095;SDS011;59968;51.084;16.748;2022-09-09T15:46:34;3.40;;;1.90;;
72095;SDS011;59968;51.084;16.748;2022-09-09T15:49:12;2.90;;;2.10;;
72095;SDS011;59968;51.084;16.748;2022-09-09T15:51:55;3.40;;;2.10;;
72095;SDS011;59968;51.084;16.748;2022-09-09T15:54:24;2.90;;;2.20;;
72095;SDS011;59968;51.084;16.748;2022-09-09T15:56:54;2.90;;;2.00;;
72095;SDS011;59968;51.084;16.748;2022-09-09T15:59:29;3.80;;;2.40;;
72095;SDS011;59968;51.084;16.748;2022-09-09T16:01:58;4.50;;;2.20;;
72095;SDS011;59968;51.084;16.748;2022-09-09T16:04:29;2.70;;;2.10;;
72095;SDS011;59968;51.084;16.748;2022-09-09T16:06:58;5.10;;;2.10;;
72095;SDS011;59968;51.084;16.748;2022-09-09T16:09:28;3.50;;;2.30;;
72095;SDS011;59968;51.084;16.748;2022-09-09T16:12:06;3.80;;;2.30;;
72095;SDS011;59968;51.084;16.748;2022-09-09T16:14:54;4.10;;;2.50;;
72095;SDS011;59968;51.084;16.748;2022-09-09T16:17:31;2.70;;;2.20;;
72095;SDS011;59968;51.084;16.748;2022-09-09T16:20:04;2.10;;;1.90;;
72095;SDS011;59968;51.084;16.748;2022-09-09T16:22:34;3.60;;;2.60;;
72095;SDS011;59968;51.084;16.748;2022-09-09T16:25:02;3.50;;;2.00;;
72095;SDS011;59968;51.084;16.748;2022-09-09T16:27:31;3.00;;;2.20;;
72095;SDS011;59968;51.084;16.748;2022-09-09T16:30:12;3.50;;;2.20;;
72095;SDS011;59968;51.084;16.748;2022-09-09T16:32:40;3.20;;;2.30;;
72095;SDS011;59968;51.084;16.748;2022-09-09T16:35:08;4.30;;;2.40;;
72095;SDS011;59968;51.084;16.748;2022-09-09T16:37:36;3.50;;;2.30;;
72095;SDS011;59968;51.084;16.748;2022-09-09T16:40:04;7.50;;;2.60;;
72095;SDS011;59968;51.084;16.748;2022-09-09T16:42:32;3.90;;;2.40;;
72095;SDS011;59968;51.084;16.748;2022-09-09T16:45:06;4.80;;;2.70;;
72095;SDS011;59968;51.084;16.748;2022-09-09T16:47:33;4.80;;;3.20;;
72095;SDS011;59968;51.084;16.748;2022-09-09T16:50:00;3.50;;;2.30;;
72095;SDS011;59968;51.084;16.748;2022-09-09T16:52:28;3.50;;;2.60;;
72095;SDS011;59968;51.084;16.748;2022-09-09T16:54:56;4.10;;;2.80;;
72095;SDS011;59968;51.084;16.748;2022-09-09T16:57:24;4.20;;;2.70;;
72095;SDS011;59968;51.084;16.748;2022-09-09T16:59:51;3.40;;;2.50;;
72095;SDS011;59968;51.084;16.748;2022-09-09T17:02:20;3.90;;;2.30;;
72095;SDS011;59968;51.084;16.748;2022-09-09T17:04:48;6.20;;;2.60;;
72095;SDS011;59968;51.084;16.748;2022-09-09T17:07:15;2.60;;;2.30;;
72095;SDS011;59968;51.084;16.748;2022-09-09T17:09:44;4.40;;;2.10;;
72095;SDS011;59968;51.084;16.748;2022-09-09T17:13:06;3.70;;;2.50;;
72095;SDS011;59968;51.084;16.748;2022-09-09T17:15:33;3.80;;;2.60;;
72095;SDS011;59968;51.084;16.748;2022-09-09T17:18:06;4.00;;;2.70;;
72095;SDS011;59968;51.084;16.748;2022-09-09T17:20:35;4.20;;;2.50;;
72095;SDS011;59968;51.084;16.748;2022-09-09T17:23:13;3.40;;;2.60;;
72095;SDS011;59968;51.084;16.748;2022-09-09T17:25:41;4.80;;;2.50;;
72095;SDS011;59968;51.084;16.748;2022-09-09T17:28:09;5.10;;;2.60;;
72095;SDS011;59968;51.084;16.748;2022-09-09T17:30:36;6.00;;;2.60;;
72095;SDS011;59968;51.084;16.748;2022-09-09T17:33:04;4.50;;;2.50;;